Time;durP1;ratioP1;P1;durP2;ratioP2;P2;SDS_P1;SDS_P2;PMS_P1;PMS_P2;Temp;Humidity;BMP_temperature;BMP_pressure;BME280_temperature;BME280_humidity;BME280_pressure;Samples;Min_cycle;Max_cycle;Signal;HPM_P1;HPM_P2
2022/10/01 00:01:07;;;;;;;;;;;6.00;99.90;;;;;;4946490;28;19918;-83
2022/10/01 00:03:33;;;;;;;;;;;6.00;99.90;;;;;;4944348;28;20057;-85
2022/10/01 00:06:05;;;;;;;;;;;5.90;99.90;;;;;;4948872;29;19917;-84
2022/10/01 00:08:31;;;;;;;;;;;5.90;99.90;;;;;;4928332;29;20363;-86
2022/10/01 00:10:59;;;;;;;;;;;6.00;99.90;;;;;;4944706;28;19957;-85
2022/10/01 00:13:25;;;;;;;;;;;5.90;99.90;;;;;;4944782;29;19950;-85
2022/10/01 00:15:51;;;;;;;;;;;5.90;99.90;;;;;;4960841;28;20052;-86
2022/10/01 00:18:17;;;;;;;;;;;5.90;99.90;;;;;;4957869;28;19922;-86
2022/10/01 00:20:43;;;;;;;;;;;6.00;99.90;;;;;;4943011;29;19914;-85
2022/10/01 00:23:10;;;;;;;;;;;6.00;99.90;;;;;;4939814;29;19938;-86
2022/10/01 00:25:36;;;;;;;;;;;6.00;99.90;;;;;;4947284;28;19910;-84
2022/10/01 00:28:01;;;;;;;;;;;6.00;99.90;;;;;;4947638;29;20006;-86
2022/10/01 00:30:27;;;;;;;;;;;6.00;99.90;;;;;;4955006;29;19910;-84
2022/10/01 00:32:53;;;;;;;;;;;6.10;99.90;;;;;;4946820;29;20351;-84
2022/10/01 00:35:21;;;;;;;;;;;6.10;99.90;;;;;;4938283;28;19922;-83
2022/10/01 00:37:51;;;;;;;;;;;6.20;99.90;;;;;;4942868;29;19915;-83
2022/10/01 00:40:18;;;;;;;;;;;6.20;99.90;;;;;;4966345;28;19918;-83
2022/10/01 00:42:44;;;;;;;;;;;6.20;99.90;;;;;;4935412;29;19929;-83
2022/10/01 00:45:11;;;;;;;;;;;6.20;99.90;;;;;;4945909;29;19991;-85
2022/10/01 00:47:42;;;;;;;;;;;6.20;99.90;;;;;;4936227;29;19914;-84
2022/10/01 00:50:26;;;;;;;;;;;6.20;99.90;;;;;;4950774;28;20368;-83
2022/10/01 00:52:54;;;;;;;;;;;6.20;99.90;;;;;;4965642;28;19910;-84
2022/10/01 00:55:23;;;;;;;;;;;6.20;99.90;;;;;;4940030;29;20499;-83
2022/10/01 00:57:49;;;;;;;;;;;6.20;99.90;;;;;;4937972;29;19919;-81
2022/10/01 01:00:15;;;;;;;;;;;6.20;99.90;;;;;;4949981;28;19917;-85
2022/10/01 01:02:41;;;;;;;;;;;6.10;99.90;;;;;;4945697;28;19923;-85
2022/10/01 01:05:12;;;;;;;;;;;6.10;99.90;;;;;;4938168;29;19976;-84
2022/10/01 01:07:43;;;;;;;;;;;6.10;99.90;;;;;;4951997;29;19910;-84
2022/10/01 01:10:10;;;;;;;;;;;6.10;99.90;;;;;;4953299;29;19910;-84
2022/10/01 01:12:44;;;;;;;;;;;6.10;99.90;;;;;;4926691;29;19957;-85
2022/10/01 01:15:17;;;;;;;;;;;6.10;99.90;;;;;;4937996;29;19962;-84
2022/10/01 01:17:42;;;;;;;;;;;6.10;99.90;;;;;;4937435;29;19910;-83
2022/10/01 01:20:15;;;;;;;;;;;6.10;99.90;;;;;;4948983;29;20006;-84
2022/10/01 01:22:44;;;;;;;;;;;6.10;99.90;;;;;;4934623;29;20482;-83
2022/10/01 01:25:21;;;;;;;;;;;6.10;99.90;;;;;;4952923;28;19910;-84
2022/10/01 01:28:05;;;;;;;;;;;6.10;99.90;;;;;;4954473;29;19969;-85
2022/10/01 01:30:31;;;;;;;;;;;6.10;99.90;;;;;;4962429;28;19918;-83
2022/10/01 01:33:02;;;;;;;;;;;6.10;99.90;;;;;;4936294;29;19915;-84
2022/10/01 01:35:33;;;;;;;;;;;6.10;99.90;;;;;;4951695;29;19918;-84
2022/10/01 01:38:06;;;;;;;;;;;6.00;99.90;;;;;;4940072;28;19942;-83
2022/10/01 01:40:35;;;;;;;;;;;6.00;99.90;;;;;;4941791;29;19930;-82
2022/10/01 01:43:04;;;;;;;;;;;6.00;99.90;;;;;;4951400;29;19949;-85
2022/10/01 01:45:31;;;;;;;;;;;6.00;99.90;;;;;;4952787;28;20299;-83
2022/10/01 01:47:57;;;;;;;;;;;6.00;99.90;;;;;;4936237;29;19998;-85
2022/10/01 01:50:27;;;;;;;;;;;6.00;99.90;;;;;;4932396;29;19966;-84
2022/10/01 01:52:54;;;;;;;;;;;6.10;99.90;;;;;;4962772;28;20424;-83
2022/10/01 01:55:24;;;;;;;;;;;6.10;99.90;;;;;;4947203;29;19933;-83
2022/10/01 01:57:50;;;;;;;;;;;6.10;99.90;;;;;;4937879;29;19911;-83
2022/10/01 02:00:16;;;;;;;;;;;6.10;99.90;;;;;;4935717;29;19914;-83
2022/10/01 02:02:45;;;;;;;;;;;6.10;99.90;;;;;;4937301;29;19941;-84
2022/10/01 02:05:14;;;;;;;;;;;6.10;99.90;;;;;;4945526;29;19911;-84
2022/10/01 02:07:41;;;;;;;;;;;6.10;99.90;;;;;;4933973;29;19910;-83
2022/10/01 02:10:09;;;;;;;;;;;6.10;99.90;;;;;;4950423;28;19938;-83
2022/10/01 02:13:02;;;;;;;;;;;6.10;99.90;;;;;;4949576;28;20367;-85
2022/10/01 02:15:30;;;;;;;;;;;6.10;99.90;;;;;;4951486;29;19970;-85
2022/10/01 02:17:55;;;;;;;;;;;6.10;99.90;;;;;;4953323;29;20338;-84
2022/10/01 02:20:29;;;;;;;;;;;6.10;99.90;;;;;;4950224;28;20026;-84
2022/10/01 02:23:02;;;;;;;;;;;6.10;99.90;;;;;;4956468;28;20406;-85
2022/10/01 02:25:30;;;;;;;;;;;6.00;99.90;;;;;;4953568;28;19918;-85
2022/10/01 02:28:05;;;;;;;;;;;6.00;99.90;;;;;;4951640;29;19918;-84
2022/10/01 02:30:34;;;;;;;;;;;6.00;99.90;;;;;;4960836;28;20443;-83
2022/10/01 02:33:00;;;;;;;;;;;6.00;99.90;;;;;;4933602;29;19915;-84
2022/10/01 02:35:29;;;;;;;;;;;6.00;99.90;;;;;;4954109;29;20291;-84
2022/10/01 02:37:57;;;;;;;;;;;6.00;99.90;;;;;;4947567;29;19930;-82
2022/10/01 02:40:25;;;;;;;;;;;6.00;99.90;;;;;;4949883;29;19977;-84
2022/10/01 02:42:53;;;;;;;;;;;6.00;99.90;;;;;;4950243;29;20282;-83
2022/10/01 02:45:23;;;;;;;;;;;6.00;99.90;;;;;;4932110;29;20303;-85
2022/10/01 02:47:52;;;;;;;;;;;6.00;99.90;;;;;;4952278;29;19918;-85
2022/10/01 02:50:19;;;;;;;;;;;5.90;99.90;;;;;;4942023;28;19997;-82
2022/10/01 02:52:48;;;;;;;;;;;5.90;99.90;;;;;;4919840;29;19969;-84
2022/10/01 02:55:19;;;;;;;;;;;5.90;99.90;;;;;;4949830;29;19914;-82
2022/10/01 02:57:44;;;;;;;;;;;5.90;99.90;;;;;;4933438;29;19910;-84
2022/10/01 03:00:14;;;;;;;;;;;5.90;99.90;;;;;;4941369;29;19965;-84
2022/10/01 03:02:40;;;;;;;;;;;5.80;99.90;;;;;;4936879;29;19941;-84
2022/10/01 03:05:06;;;;;;;;;;;5.80;99.90;;;;;;4948259;29;20484;-85
2022/10/01 03:07:34;;;;;;;;;;;5.80;99.90;;;;;;4951883;29;19906;-83
2022/10/01 03:10:00;;;;;;;;;;;5.80;99.90;;;;;;4942366;29;19917;-84
2022/10/01 03:12:26;;;;;;;;;;;5.80;99.90;;;;;;4949534;29;19906;-82
2022/10/01 03:14:52;;;;;;;;;;;5.80;99.90;;;;;;4941465;29;19911;-84
2022/10/01 03:17:18;;;;;;;;;;;5.80;99.90;;;;;;4940213;29;19915;-85
2022/10/01 03:19:44;;;;;;;;;;;5.80;99.90;;;;;;4916637;29;19919;-84
2022/10/01 03:22:14;;;;;;;;;;;5.70;99.90;;;;;;4944362;29;19910;-83
2022/10/01 03:24:40;;;;;;;;;;;5.70;99.90;;;;;;4938315;29;20311;-85
2022/10/01 03:27:05;;;;;;;;;;;5.70;99.90;;;;;;4960943;28;20034;-83
2022/10/01 03:29:31;;;;;;;;;;;5.70;99.90;;;;;;4935804;29;19922;-82
2022/10/01 03:31:57;;;;;;;;;;;5.60;99.90;;;;;;4926843;29;19918;-82
2022/10/01 03:34:22;;;;;;;;;;;5.70;99.90;;;;;;4945077;29;19914;-85
2022/10/01 03:36:48;;;;;;;;;;;5.70;99.90;;;;;;4941316;29;19927;-84
2022/10/01 03:39:14;;;;;;;;;;;5.60;99.90;;;;;;4948285;29;20423;-83
2022/10/01 03:41:40;;;;;;;;;;;5.60;99.90;;;;;;4947205;29;19916;-85
2022/10/01 03:44:06;;;;;;;;;;;5.70;99.90;;;;;;4950831;28;20307;-83
2022/10/01 03:46:32;;;;;;;;;;;5.70;99.90;;;;;;4930907;29;19927;-83
2022/10/01 03:48:59;;;;;;;;;;;5.70;99.90;;;;;;4948093;29;19910;-83
2022/10/01 03:51:28;;;;;;;;;;;5.70;99.90;;;;;;4948873;29;19910;-83
2022/10/01 03:53:54;;;;;;;;;;;5.70;99.90;;;;;;4945932;29;19946;-83
2022/10/01 03:56:20;;;;;;;;;;;5.70;99.90;;;;;;4957115;28;19918;-85
2022/10/01 03:58:46;;;;;;;;;;;5.80;99.90;;;;;;4951054;29;19910;-83
2022/10/01 04:01:12;;;;;;;;;;;5.80;99.90;;;;;;4942338;28;19911;-83
2022/10/01 04:03:37;;;;;;;;;;;5.80;99.90;;;;;;4944406;29;19915;-83
2022/10/01 04:06:03;;;;;;;;;;;5.80;99.90;;;;;;4949817;29;19958;-85
2022/10/01 04:08:29;;;;;;;;;;;5.80;99.90;;;;;;4938381;29;19915;-84
2022/10/01 04:10:55;;;;;;;;;;;5.90;99.90;;;;;;4953316;28;20409;-84
2022/10/01 04:13:20;;;;;;;;;;;5.90;99.90;;;;;;4947750;29;20507;-83
2022/10/01 04:15:47;;;;;;;;;;;5.90;99.90;;;;;;4949669;29;19918;-83
2022/10/01 04:18:15;;;;;;;;;;;5.90;99.90;;;;;;4931485;29;19915;-84
2022/10/01 04:20:41;;;;;;;;;;;5.90;99.90;;;;;;4949709;28;19918;-83
2022/10/01 04:23:06;;;;;;;;;;;5.90;99.90;;;;;;4944410;29;19915;-84
2022/10/01 04:25:32;;;;;;;;;;;5.90;99.90;;;;;;4951208;28;19925;-84
2022/10/01 04:27:59;;;;;;;;;;;5.90;99.90;;;;;;4931911;29;19915;-83
2022/10/01 04:30:26;;;;;;;;;;;5.90;99.90;;;;;;4945695;29;20272;-86
2022/10/01 04:32:52;;;;;;;;;;;5.90;99.90;;;;;;4947277;29;20467;-83
2022/10/01 04:35:17;;;;;;;;;;;5.90;99.90;;;;;;4946623;28;20005;-83
2022/10/01 04:37:43;;;;;;;;;;;5.90;99.90;;;;;;4948092;29;20442;-83
2022/10/01 04:40:12;;;;;;;;;;;5.90;99.90;;;;;;4931320;29;20005;-83
2022/10/01 04:42:42;;;;;;;;;;;5.90;99.90;;;;;;4949505;28;19910;-83
2022/10/01 04:45:09;;;;;;;;;;;5.90;99.90;;;;;;4939573;29;19922;-84
2022/10/01 04:47:35;;;;;;;;;;;6.00;99.90;;;;;;4947461;29;19911;-84
2022/10/01 04:50:00;;;;;;;;;;;6.00;99.90;;;;;;4937121;29;19916;-85
2022/10/01 04:52:26;;;;;;;;;;;6.00;99.90;;;;;;4938540;29;19910;-84
2022/10/01 04:54:52;;;;;;;;;;;6.00;99.90;;;;;;4950608;29;19914;-83
2022/10/01 04:57:20;;;;;;;;;;;6.00;99.90;;;;;;4949926;29;20375;-83
2022/10/01 04:59:46;;;;;;;;;;;6.00;99.90;;;;;;4947883;29;19918;-82
2022/10/01 05:02:12;;;;;;;;;;;6.00;99.90;;;;;;4948601;29;21401;-83
2022/10/01 05:04:38;;;;;;;;;;;6.10;99.90;;;;;;4951098;29;19910;-82
2022/10/01 05:07:04;;;;;;;;;;;6.10;99.90;;;;;;4951061;29;19914;-84
2022/10/01 05:09:29;;;;;;;;;;;6.20;99.90;;;;;;4946870;29;20001;-85
2022/10/01 05:11:55;;;;;;;;;;;6.20;99.90;;;;;;4948382;28;19957;-83
2022/10/01 05:14:21;;;;;;;;;;;6.20;99.90;;;;;;4932497;29;20388;-83
2022/10/01 05:16:46;;;;;;;;;;;6.20;99.90;;;;;;4937591;29;19942;-82
2022/10/01 05:19:13;;;;;;;;;;;6.20;99.90;;;;;;4952295;29;19918;-83
2022/10/01 05:21:39;;;;;;;;;;;6.20;99.90;;;;;;4949495;28;19945;-83
2022/10/01 05:24:05;;;;;;;;;;;6.20;99.90;;;;;;4937584;29;20339;-86
2022/10/01 05:26:30;;;;;;;;;;;6.20;99.90;;;;;;4917217;29;20339;-85
2022/10/01 05:28:59;;;;;;;;;;;6.20;99.90;;;;;;4943534;29;19910;-86
2022/10/01 05:31:25;;;;;;;;;;;6.20;99.90;;;;;;4952468;29;20369;-86
2022/10/01 05:33:51;;;;;;;;;;;6.30;99.90;;;;;;4948865;29;19955;-87
2022/10/01 05:36:18;;;;;;;;;;;6.30;99.90;;;;;;4935161;29;19914;-85
2022/10/01 05:38:46;;;;;;;;;;;6.30;99.90;;;;;;4959081;28;19911;-86
2022/10/01 05:41:12;;;;;;;;;;;6.30;99.90;;;;;;4932582;29;19917;-86
2022/10/01 05:43:37;;;;;;;;;;;6.40;99.90;;;;;;4938914;29;19914;-86
2022/10/01 05:46:06;;;;;;;;;;;6.40;99.90;;;;;;4936177;29;19954;-86
2022/10/01 05:48:35;;;;;;;;;;;6.50;99.90;;;;;;4941712;29;20375;-85
2022/10/01 05:51:05;;;;;;;;;;;6.50;99.90;;;;;;4943652;29;19938;-86
2022/10/01 05:53:31;;;;;;;;;;;6.60;99.90;;;;;;4934507;29;19911;-86
2022/10/01 05:56:01;;;;;;;;;;;6.60;99.90;;;;;;4926631;29;19914;-86
2022/10/01 05:58:27;;;;;;;;;;;6.70;99.90;;;;;;4939314;29;20547;-86
2022/10/01 06:00:54;;;;;;;;;;;6.70;99.90;;;;;;4935431;29;19911;-85
2022/10/01 06:03:20;;;;;;;;;;;6.70;99.90;;;;;;4942321;28;19961;-87
2022/10/01 06:05:45;;;;;;;;;;;6.80;99.90;;;;;;4952136;29;19910;-87
2022/10/01 06:08:11;;;;;;;;;;;6.80;99.90;;;;;;4923506;29;19915;-85
2022/10/01 06:10:37;;;;;;;;;;;6.90;99.90;;;;;;4938505;29;19961;-85
2022/10/01 06:13:04;;;;;;;;;;;7.00;99.90;;;;;;4952365;29;20749;-85
2022/10/01 06:15:36;;;;;;;;;;;7.00;99.90;;;;;;4944370;29;19914;-85
2022/10/01 06:18:02;;;;;;;;;;;7.00;99.90;;;;;;4938932;29;20547;-85
2022/10/01 06:20:28;;;;;;;;;;;7.00;99.90;;;;;;4951227;29;19914;-85
2022/10/01 06:22:55;;;;;;;;;;;7.10;99.90;;;;;;4935024;29;19915;-85
2022/10/01 06:25:21;;;;;;;;;;;7.10;99.90;;;;;;4922172;29;19930;-85
2022/10/01 06:27:55;;;;;;;;;;;7.10;99.90;;;;;;4922572;29;20516;-86
2022/10/01 06:30:21;;;;;;;;;;;7.10;99.90;;;;;;4937850;29;19914;-86
2022/10/01 06:32:47;;;;;;;;;;;7.20;99.90;;;;;;4930062;29;19942;-87
2022/10/01 06:35:13;;;;;;;;;;;7.20;99.90;;;;;;4937476;29;19968;-85
2022/10/01 06:37:40;;;;;;;;;;;7.20;99.90;;;;;;4941369;29;20050;-86
2022/10/01 06:40:06;;;;;;;;;;;7.30;99.90;;;;;;4934700;29;19918;-88
2022/10/01 06:42:32;;;;;;;;;;;7.30;99.90;;;;;;4922681;29;19914;-85
2022/10/01 06:44:57;;;;;;;;;;;7.40;99.90;;;;;;4940818;29;19917;-86
2022/10/01 06:47:23;;;;;;;;;;;7.40;99.90;;;;;;4934898;29;19915;-85
2022/10/01 06:49:49;;;;;;;;;;;7.50;99.90;;;;;;4930062;29;20361;-86
2022/10/01 06:55:00;;;;;;;;;;;7.60;99.90;;;;;;4951770;29;19918;-86
2022/10/01 06:57:26;;;;;;;;;;;7.70;99.90;;;;;;4937114;29;19941;-86
2022/10/01 06:59:52;;;;;;;;;;;7.70;99.90;;;;;;4935881;29;20343;-85
2022/10/01 07:02:27;;;;;;;;;;;7.80;99.90;;;;;;4953308;29;19961;-85
2022/10/01 07:04:59;;;;;;;;;;;7.90;99.90;;;;;;4934190;29;19915;-85
2022/10/01 07:07:29;;;;;;;;;;;7.90;99.90;;;;;;4952555;29;19965;-85
2022/10/01 07:09:56;;;;;;;;;;;7.90;99.90;;;;;;4947952;28;19921;-85
2022/10/01 07:12:22;;;;;;;;;;;8.00;99.90;;;;;;4952240;28;19910;-85
2022/10/01 07:14:47;;;;;;;;;;;8.00;99.90;;;;;;4924686;29;20347;-85
2022/10/01 07:17:13;;;;;;;;;;;8.10;99.90;;;;;;4949805;28;19918;-84
2022/10/01 07:19:39;;;;;;;;;;;8.20;99.90;;;;;;4951852;29;19941;-84
2022/10/01 07:22:05;;;;;;;;;;;8.20;99.90;;;;;;4931414;29;19914;-87
2022/10/01 07:24:30;;;;;;;;;;;8.30;99.90;;;;;;4936562;29;20379;-84
2022/10/01 07:26:56;;;;;;;;;;;8.30;99.90;;;;;;4933662;29;19949;-85
2022/10/01 07:29:22;;;;;;;;;;;8.40;99.90;;;;;;4931690;29;20491;-85
2022/10/01 07:31:49;;;;;;;;;;;8.40;99.90;;;;;;4933821;29;20386;-85
2022/10/01 07:34:15;;;;;;;;;;;8.50;99.90;;;;;;4951088;28;19910;-85
2022/10/01 07:36:44;;;;;;;;;;;8.50;99.90;;;;;;4929452;29;20363;-85
2022/10/01 07:39:12;;;;;;;;;;;8.60;99.90;;;;;;4932758;29;19914;-84
2022/10/01 07:41:39;;;;;;;;;;;8.70;99.90;;;;;;4950121;29;19914;-86
2022/10/01 07:44:04;;;;;;;;;;;8.80;99.90;;;;;;4923237;29;20536;-85
2022/10/01 07:46:30;;;;;;;;;;;8.80;99.90;;;;;;4945363;29;19910;-85
2022/10/01 07:48:56;;;;;;;;;;;8.90;99.90;;;;;;4916564;29;20029;-86
2022/10/01 07:51:23;;;;;;;;;;;8.90;99.90;;;;;;4932204;29;19925;-86
2022/10/01 07:53:49;;;;;;;;;;;8.90;99.90;;;;;;4919513;29;19948;-86
2022/10/01 07:56:15;;;;;;;;;;;8.90;99.90;;;;;;4949218;28;19941;-86
2022/10/01 07:58:42;;;;;;;;;;;8.90;99.90;;;;;;4952407;29;20390;-87
2022/10/01 08:01:08;;;;;;;;;;;9.00;99.90;;;;;;4935810;29;19914;-86
2022/10/01 08:03:34;;;;;;;;;;;9.00;99.90;;;;;;4933390;29;19918;-86
2022/10/01 08:06:02;;;;;;;;;;;9.00;99.90;;;;;;4932023;29;20402;-86
2022/10/01 08:08:29;;;;;;;;;;;9.00;99.90;;;;;;4937980;29;19918;-86
2022/10/01 08:10:55;;;;;;;;;;;9.10;99.90;;;;;;4946694;28;19964;-86
2022/10/01 08:13:23;;;;;;;;;;;9.10;99.90;;;;;;4950583;29;20358;-87
2022/10/01 08:15:52;;;;;;;;;;;9.10;99.90;;;;;;4950186;28;19918;-85
2022/10/01 08:18:18;;;;;;;;;;;9.00;99.90;;;;;;4935517;29;19918;-83
2022/10/01 08:20:44;;;;;;;;;;;9.00;99.90;;;;;;4942412;29;19981;-83
2022/10/01 08:23:14;;;;;;;;;;;9.00;99.90;;;;;;4962240;28;19906;-84
2022/10/01 08:25:40;;;;;;;;;;;9.00;99.90;;;;;;4949172;29;20014;-83
2022/10/01 08:28:07;;;;;;;;;;;9.00;99.90;;;;;;4948809;29;19918;-83
2022/10/01 08:30:32;;;;;;;;;;;9.00;99.90;;;;;;4950449;28;20410;-84
2022/10/01 08:32:59;;;;;;;;;;;9.00;99.90;;;;;;4940581;29;19918;-83
2022/10/01 08:35:25;;;;;;;;;;;8.90;99.90;;;;;;4956527;28;19914;-83
2022/10/01 08:37:51;;;;;;;;;;;9.00;99.90;;;;;;4946764;29;19965;-85
2022/10/01 08:40:19;;;;;;;;;;;8.90;99.90;;;;;;4945903;29;19945;-85
2022/10/01 08:42:44;;;;;;;;;;;8.90;99.90;;;;;;4933187;29;19910;-84
2022/10/01 08:45:12;;;;;;;;;;;9.00;99.90;;;;;;4946745;29;19911;-85
2022/10/01 08:47:41;;;;;;;;;;;8.90;99.90;;;;;;4950440;28;19969;-88
2022/10/01 08:50:14;;;;;;;;;;;8.90;99.90;;;;;;4938563;29;19944;-86
2022/10/01 08:52:44;;;;;;;;;;;8.90;99.90;;;;;;4932485;29;19962;-89
2022/10/01 08:55:13;;;;;;;;;;;9.00;99.90;;;;;;4944764;29;19910;-87
2022/10/01 08:57:40;;;;;;;;;;;9.00;99.90;;;;;;4951067;29;20126;-88
2022/10/01 09:00:10;;;;;;;;;;;9.00;99.90;;;;;;4935742;29;19914;-88
2022/10/01 09:02:40;;;;;;;;;;;9.00;99.90;;;;;;4943220;29;19920;-89
2022/10/01 09:05:19;;;;;;;;;;;9.00;99.90;;;;;;4940492;29;19997;-88
2022/10/01 09:08:03;;;;;;;;;;;9.00;99.90;;;;;;4934984;29;19918;-89
2022/10/01 09:10:35;;;;;;;;;;;9.00;99.90;;;;;;4925305;29;20327;-87
2022/10/01 09:13:07;;;;;;;;;;;9.00;99.90;;;;;;4944517;28;19985;-85
2022/10/01 09:15:32;;;;;;;;;;;9.00;99.90;;;;;;4947155;29;19961;-83
2022/10/01 09:18:01;;;;;;;;;;;9.00;99.90;;;;;;4941805;29;19975;-83
2022/10/01 09:20:33;;;;;;;;;;;9.00;99.90;;;;;;4952690;28;20001;-82
2022/10/01 09:23:17;;;;;;;;;;;9.00;99.90;;;;;;4928299;29;19957;-85
2022/10/01 09:25:44;;;;;;;;;;;9.00;99.90;;;;;;4946084;28;19930;-85
2022/10/01 09:28:10;;;;;;;;;;;9.00;99.90;;;;;;4944961;29;19910;-83
2022/10/01 09:30:38;;;;;;;;;;;9.00;99.90;;;;;;4926655;29;19917;-84
2022/10/01 09:33:04;;;;;;;;;;;9.10;99.90;;;;;;4950644;29;19914;-88
2022/10/01 09:35:48;;;;;;;;;;;9.10;99.90;;;;;;4953549;29;19914;-88
2022/10/01 09:38:19;;;;;;;;;;;9.00;99.90;;;;;;4935366;29;19943;-85
2022/10/01 09:40:50;;;;;;;;;;;9.00;99.90;;;;;;4947945;28;19910;-87
2022/10/01 09:43:19;;;;;;;;;;;9.10;99.90;;;;;;4954589;29;19945;-86
2022/10/01 09:45:46;;;;;;;;;;;9.00;99.90;;;;;;4951869;29;19911;-86
2022/10/01 09:48:30;;;;;;;;;;;9.10;99.90;;;;;;4951018;29;19915;-86
2022/10/01 09:51:09;;;;;;;;;;;9.00;99.90;;;;;;4940541;28;19977;-86
2022/10/01 09:53:40;;;;;;;;;;;9.00;99.90;;;;;;4945746;29;19970;-86
2022/10/01 09:56:41;;;;;;;;;;;9.00;99.90;;;;;;4953317;28;19962;-83
2022/10/01 09:59:13;;;;;;;;;;;9.00;99.90;;;;;;4926016;29;19917;-85
2022/10/01 10:01:39;;;;;;;;;;;8.90;99.90;;;;;;4953785;29;20318;-83
2022/10/01 10:04:05;;;;;;;;;;;8.90;99.90;;;;;;4953496;29;20010;-85
2022/10/01 10:06:30;;;;;;;;;;;8.90;99.90;;;;;;4954094;29;19969;-85
2022/10/01 10:08:57;;;;;;;;;;;8.90;99.90;;;;;;4917787;29;20013;-83
2022/10/01 10:11:24;;;;;;;;;;;8.90;99.90;;;;;;4939969;29;19910;-84
2022/10/01 10:14:01;;;;;;;;;;;8.80;99.90;;;;;;4932195;29;19911;-85
2022/10/01 10:16:35;;;;;;;;;;;8.80;99.90;;;;;;4949329;29;19914;-84
2022/10/01 10:19:09;;;;;;;;;;;8.80;99.90;;;;;;4967520;28;19919;-85
2022/10/01 10:21:34;;;;;;;;;;;8.80;99.90;;;;;;4950684;29;20279;-84
2022/10/01 10:24:02;;;;;;;;;;;8.70;99.90;;;;;;4951584;29;19917;-83
2022/10/01 10:26:30;;;;;;;;;;;8.70;99.90;;;;;;4950334;29;19910;-83
2022/10/01 10:28:57;;;;;;;;;;;8.70;99.90;;;;;;4933676;29;20380;-85
2022/10/01 10:31:24;;;;;;;;;;;8.70;99.90;;;;;;4941015;29;19949;-84
2022/10/01 10:33:51;;;;;;;;;;;8.70;99.90;;;;;;4957040;28;19921;-84
2022/10/01 10:36:18;;;;;;;;;;;8.70;99.90;;;;;;4965169;28;20007;-84
2022/10/01 10:38:46;;;;;;;;;;;8.70;99.90;;;;;;4943092;29;19914;-84
2022/10/01 10:41:18;;;;;;;;;;;8.80;99.90;;;;;;4948772;28;19950;-83
2022/10/01 10:43:47;;;;;;;;;;;8.80;99.90;;;;;;4951179;29;20512;-85
2022/10/01 10:46:20;;;;;;;;;;;8.80;99.90;;;;;;4951273;29;19956;-82
2022/10/01 10:48:48;;;;;;;;;;;8.80;99.90;;;;;;4952420;28;19910;-82
2022/10/01 10:51:14;;;;;;;;;;;8.80;99.90;;;;;;4947594;29;20361;-82
2022/10/01 10:53:45;;;;;;;;;;;8.80;99.90;;;;;;4962478;28;19954;-82
2022/10/01 10:56:22;;;;;;;;;;;8.80;99.90;;;;;;4959353;28;20342;-80
2022/10/01 10:58:48;;;;;;;;;;;8.80;99.90;;;;;;4946419;28;20300;-83
2022/10/01 11:01:17;;;;;;;;;;;8.80;99.90;;;;;;4950775;28;20374;-85
2022/10/01 11:03:47;;;;;;;;;;;8.90;99.90;;;;;;4951026;28;20558;-84
2022/10/01 11:06:13;;;;;;;;;;;8.90;99.90;;;;;;4934860;29;19984;-83
2022/10/01 11:08:39;;;;;;;;;;;8.90;99.90;;;;;;4950794;29;20343;-82
2022/10/01 11:11:24;;;;;;;;;;;8.90;99.90;;;;;;4930959;29;19911;-82
2022/10/01 11:13:58;;;;;;;;;;;8.80;99.90;;;;;;4935489;29;20526;-82
2022/10/01 11:16:42;;;;;;;;;;;8.90;99.90;;;;;;4947262;29;19914;-82
2022/10/01 11:19:23;;;;;;;;;;;8.90;99.90;;;;;;4948084;29;20005;-83
2022/10/01 11:22:18;;;;;;;;;;;8.90;99.90;;;;;;4950495;28;19937;-83
2022/10/01 11:24:44;;;;;;;;;;;8.90;99.90;;;;;;4941140;28;19922;-83
2022/10/01 11:27:21;;;;;;;;;;;8.90;99.90;;;;;;4946415;29;19911;-82
2022/10/01 11:30:06;;;;;;;;;;;8.90;99.90;;;;;;4943263;28;19910;-83
2022/10/01 11:32:47;;;;;;;;;;;9.00;99.90;;;;;;4939505;28;19922;-83
2022/10/01 11:35:41;;;;;;;;;;;9.00;99.90;;;;;;4931283;29;19917;-84
2022/10/01 11:38:31;;;;;;;;;;;9.10;99.90;;;;;;4948732;29;20005;-83
2022/10/01 11:40:57;;;;;;;;;;;9.00;99.90;;;;;;4949930;28;19966;-82
2022/10/01 11:43:29;;;;;;;;;;;9.10;99.90;;;;;;4945412;29;19911;-81
2022/10/01 11:45:57;;;;;;;;;;;9.10;99.90;;;;;;4946334;29;20275;-81
2022/10/01 11:48:30;;;;;;;;;;;9.10;99.90;;;;;;4943436;29;19915;-81
2022/10/01 11:51:00;;;;;;;;;;;9.20;99.90;;;;;;4946954;28;19910;-82
2022/10/01 11:53:32;;;;;;;;;;;9.20;99.90;;;;;;4941856;29;19958;-80
2022/10/01 11:59:00;;;;;;;;;;;9.30;99.90;;;;;;4929570;29;19911;-80
2022/10/01 12:01:46;;;;;;;;;;;9.30;99.90;;;;;;4942137;28;20006;-82
2022/10/01 12:04:21;;;;;;;;;;;9.30;99.90;;;;;;4943510;29;19918;-79
2022/10/01 12:06:56;;;;;;;;;;;9.40;99.90;;;;;;4944002;28;19921;-80
2022/10/01 12:09:26;;;;;;;;;;;9.40;99.90;;;;;;4938946;29;20638;-80
2022/10/01 12:12:00;;;;;;;;;;;9.40;99.90;;;;;;4939775;28;19910;-81
2022/10/01 12:14:36;;;;;;;;;;;9.40;99.90;;;;;;4936716;29;19925;-80
2022/10/01 12:17:11;;;;;;;;;;;9.50;99.90;;;;;;4943673;29;19921;-81
2022/10/01 12:19:40;;;;;;;;;;;9.60;99.90;;;;;;4931028;29;19911;-82
2022/10/01 12:22:10;;;;;;;;;;;9.60;99.90;;;;;;4939342;29;19925;-83
2022/10/01 12:24:39;;;;;;;;;;;9.70;99.90;;;;;;4947094;29;19917;-83
2022/10/01 12:27:28;;;;;;;;;;;9.70;99.90;;;;;;4930916;29;19953;-82
2022/10/01 12:29:54;;;;;;;;;;;9.80;99.90;;;;;;4926898;29;19938;-82
2022/10/01 12:32:20;;;;;;;;;;;9.80;99.90;;;;;;4947338;28;19957;-81
2022/10/01 12:35:05;;;;;;;;;;;9.90;99.90;;;;;;4959403;28;20005;-82
2022/10/01 12:37:40;;;;;;;;;;;9.80;99.90;;;;;;4947790;28;19936;-82
2022/10/01 12:40:20;;;;;;;;;;;9.90;99.90;;;;;;4930227;29;20008;-82
2022/10/01 12:43:04;;;;;;;;;;;9.90;99.90;;;;;;4943193;29;19914;-82
2022/10/01 12:45:46;;;;;;;;;;;10.00;99.90;;;;;;4941387;29;19953;-81
2022/10/01 12:48:15;;;;;;;;;;;10.00;99.90;;;;;;4944344;29;20005;-81
2022/10/01 12:50:47;;;;;;;;;;;9.90;99.90;;;;;;4928571;28;19918;-81
2022/10/01 12:53:21;;;;;;;;;;;10.00;99.90;;;;;;4936512;29;19919;-83
2022/10/01 12:56:09;;;;;;;;;;;10.00;99.90;;;;;;4935957;29;19921;-82
2022/10/01 12:58:38;;;;;;;;;;;10.00;99.90;;;;;;4946258;29;19911;-82
2022/10/01 13:01:23;;;;;;;;;;;10.00;99.90;;;;;;4941487;29;19910;-84
2022/10/01 13:04:16;;;;;;;;;;;10.00;99.90;;;;;;4942871;28;19914;-83
2022/10/01 13:06:41;;;;;;;;;;;10.00;99.90;;;;;;4936413;29;19910;-83
2022/10/01 13:09:22;;;;;;;;;;;10.00;99.90;;;;;;4922504;29;20454;-84
2022/10/01 13:12:04;;;;;;;;;;;9.90;99.90;;;;;;4934398;29;20520;-85
2022/10/01 13:14:32;;;;;;;;;;;9.90;99.90;;;;;;4942564;29;19914;-84
2022/10/01 13:16:57;;;;;;;;;;;9.90;99.90;;;;;;4943794;29;20001;-83
2022/10/01 13:19:32;;;;;;;;;;;9.90;99.90;;;;;;4945605;29;20359;-83
2022/10/01 13:22:06;;;;;;;;;;;9.90;99.90;;;;;;4937464;29;19962;-81
2022/10/01 13:24:46;;;;;;;;;;;9.80;99.90;;;;;;4936837;29;19918;-82
2022/10/01 13:27:16;;;;;;;;;;;9.80;99.90;;;;;;4945213;29;20017;-82
2022/10/01 13:29:45;;;;;;;;;;;9.80;99.90;;;;;;4946055;29;19921;-85
2022/10/01 13:32:24;;;;;;;;;;;9.80;99.90;;;;;;4950448;28;20001;-84
2022/10/01 13:34:50;;;;;;;;;;;9.80;99.90;;;;;;4940348;29;19944;-81
2022/10/01 13:37:17;;;;;;;;;;;9.80;99.90;;;;;;4944343;29;19918;-83
2022/10/01 13:39:44;;;;;;;;;;;9.80;99.90;;;;;;4945736;29;19966;-81
2022/10/01 13:42:17;;;;;;;;;;;9.90;99.90;;;;;;4940774;29;19910;-82
2022/10/01 13:44:42;;;;;;;;;;;9.90;99.90;;;;;;4951034;28;19917;-83
2022/10/01 13:47:12;;;;;;;;;;;9.90;99.90;;;;;;4916534;28;19919;-84
2022/10/01 13:49:37;;;;;;;;;;;9.90;99.90;;;;;;4943465;29;20597;-82
2022/10/01 13:52:04;;;;;;;;;;;10.00;99.90;;;;;;4956550;28;19915;-83
2022/10/01 13:54:47;;;;;;;;;;;10.00;99.90;;;;;;4941467;28;19907;-82
2022/10/01 13:57:33;;;;;;;;;;;10.00;99.90;;;;;;4959596;28;20363;-82
2022/10/01 14:00:22;;;;;;;;;;;10.00;99.90;;;;;;4960650;28;19949;-82
2022/10/01 14:03:05;;;;;;;;;;;9.90;99.90;;;;;;4941144;28;19922;-82
2022/10/01 14:05:38;;;;;;;;;;;10.00;99.90;;;;;;4951059;28;19917;-82
2022/10/01 14:08:10;;;;;;;;;;;10.00;99.90;;;;;;4948220;28;19942;-82
2022/10/01 14:15:57;;;;;;;;;;;10.00;99.90;;;;;;4944124;28;20441;-80
2022/10/01 14:16:10;;;;;;;;;;;10.00;99.90;;;;;;4944661;28;19922;-83
2022/10/01 14:18:38;;;;;;;;;;;10.10;99.90;;;;;;4945965;29;20026;-81
2022/10/01 14:21:22;;;;;;;;;;;10.00;99.90;;;;;;4941534;29;19910;-81
2022/10/01 14:23:57;;;;;;;;;;;10.00;99.90;;;;;;4944383;28;19965;-80
2022/10/01 14:26:23;;;;;;;;;;;10.00;99.90;;;;;;4949581;28;19994;-81
2022/10/01 14:28:58;;;;;;;;;;;10.10;99.90;;;;;;4943590;29;19922;-82
2022/10/01 14:31:32;;;;;;;;;;;10.10;99.90;;;;;;4924773;29;20386;-82
2022/10/01 14:34:04;;;;;;;;;;;10.10;99.90;;;;;;4940266;29;20443;-80
2022/10/01 14:36:35;;;;;;;;;;;10.10;99.90;;;;;;4921893;29;20487;-82
2022/10/01 14:39:21;;;;;;;;;;;10.10;99.90;;;;;;4943310;29;19918;-81
2022/10/01 14:41:49;;;;;;;;;;;10.10;99.90;;;;;;4942817;29;19910;-81
2022/10/01 14:44:25;;;;;;;;;;;10.20;99.90;;;;;;4947341;28;19911;-82
2022/10/01 14:46:52;;;;;;;;;;;10.20;99.90;;;;;;4949596;28;19960;-81
2022/10/01 14:49:19;;;;;;;;;;;10.20;99.90;;;;;;4948928;28;19910;-80
2022/10/01 14:51:52;;;;;;;;;;;10.20;99.90;;;;;;4945267;28;19993;-80